Time;durP1;ratioP1;P1;durP2;ratioP2;P2;SDS_P1;SDS_P2;PMS_P1;PMS_P2;Temp;Humidity;BMP_temperature;BMP_pressure;BME280_temperature;BME280_humidity;BME280_pressure;Samples;Min_cycle;Max_cycle;Signal;HPM_P1;HPM_P2
2022/08/31 00:05:29;;;;;;;;;;;;;;;24.04;50.29;101586.34;5122015;27;19986;-37
2022/08/31 00:07:55;;;;;;;;;;;;;;;24.04;50.34;101586.34;5139651;27;19930;-38
2022/08/31 00:10:24;;;;;;;;;;;;;;;24.04;50.59;101597.50;5136225;27;19934;-37
2022/08/31 00:13:01;;;;;;;;;;;;;;;24.04;50.70;101589.97;5136481;27;19953;-37
2022/08/31 00:15:28;;;;;;;;;;;;;;;24.03;50.58;101593.88;5135405;27;19931;-37
2022/08/31 00:17:55;;;;;;;;;;;;;;;24.03;50.57;101595.84;5139182;27;19969;-38
2022/08/31 00:20:21;;;;;;;;;;;;;;;24.03;50.42;101596.66;5137329;27;20388;-37
2022/08/31 00:22:58;;;;;;;;;;;;;;;24.04;50.41;101600.28;5118733;27;19934;-37
2022/08/31 00:25:23;;;;;;;;;;;;;;;24.03;50.45;101595.84;5119209;27;19928;-37
2022/08/31 00:27:49;;;;;;;;;;;;;;;24.04;50.42;101597.50;5134064;27;19923;-37
2022/08/31 00:30:14;;;;;;;;;;;;;;;24.03;50.44;101593.88;5140547;27;19923;-38
2022/08/31 00:32:40;;;;;;;;;;;;;;;24.03;50.39;101591.09;5134094;27;19923;-37
2022/08/31 00:35:06;;;;;;;;;;;;;;;24.03;50.62;101593.06;5140219;27;20330;-37
2022/08/31 00:37:31;;;;;;;;;;;;;;;24.03;50.49;101593.88;5133434;27;19923;-37
2022/08/31 00:39:57;;;;;;;;;;;;;;;24.02;50.46;101596.97;5137742;27;19974;-37
2022/08/31 00:42:22;;;;;;;;;;;;;;;24.03;50.43;101593.06;5117690;27;20407;-38
2022/08/31 00:44:48;;;;;;;;;;;;;;;24.02;50.69;101588.63;5138080;27;19923;-38
2022/08/31 00:47:14;;;;;;;;;;;;;;;24.03;50.53;101581.94;5135383;27;19976;-38
2022/08/31 00:49:40;;;;;;;;;;;;;;;24.03;50.44;101582.75;5138314;27;19967;-39
2022/08/31 00:52:11;;;;;;;;;;;;;;;24.02;50.63;101581.09;5138117;27;19968;-37
2022/08/31 00:54:38;;;;;;;;;;;;;;;24.03;50.83;101581.94;5115516;27;20076;-38
2022/08/31 00:57:04;;;;;;;;;;;;;;;24.02;50.52;101578.31;5137955;27;20014;-37
2022/08/31 00:59:30;;;;;;;;;;;;;;;24.03;50.51;101581.94;5119630;27;19931;-37
2022/08/31 01:01:56;;;;;;;;;;;;;;;24.02;50.58;101583.88;5133437;27;20018;-38
2022/08/31 01:04:21;;;;;;;;;;;;;;;24.03;50.51;101584.72;5135958;27;19931;-37
2022/08/31 01:06:47;;;;;;;;;;;;;;;24.01;50.51;101590.59;5135493;27;19934;-38
2022/08/31 01:09:13;;;;;;;;;;;;;;;24.02;50.51;101583.06;5139521;27;19924;-38
2022/08/31 01:11:38;;;;;;;;;;;;;;;24.02;50.67;101578.31;5141706;27;20369;-38
2022/08/31 01:14:06;;;;;;;;;;;;;;;24.02;50.44;101578.31;5145142;27;20018;-37
2022/08/31 01:16:34;;;;;;;;;;;;;;;24.02;50.59;101578.31;5122442;27;19970;-37
2022/08/31 01:19:00;;;;;;;;;;;;;;;24.01;50.47;101578.63;5120828;27;19922;-38
2022/08/31 01:21:27;;;;;;;;;;;;;;;24.02;50.44;101580.28;5127870;27;20199;-38
2022/08/31 01:23:54;;;;;;;;;;;;;;;24.01;50.96;101579.47;5145571;27;19927;-38
2022/08/31 01:26:20;;;;;;;;;;;;;;;24.01;50.78;101585.03;5138919;27;20352;-38
2022/08/31 01:28:46;;;;;;;;;;;;;;;24.02;50.62;101585.84;5138783;27;19983;-37
2022/08/31 01:31:19;;;;;;;;;;;;;;;24.02;50.83;101591.41;5141186;27;19930;-38
2022/08/31 01:33:45;;;;;;;;;;;;;;;24.01;50.51;101589.75;5141887;27;19923;-38
2022/08/31 01:36:11;;;;;;;;;;;;;;;24.01;50.76;101596.16;5138700;27;19923;-38
2022/08/31 01:38:41;;;;;;;;;;;;;;;24.00;50.44;101600.03;5135722;27;19930;-37
2022/08/31 01:41:06;;;;;;;;;;;;;;;24.01;50.46;101598.94;5120538;28;19924;-38
2022/08/31 01:43:32;;;;;;;;;;;;;;;24.02;50.38;101597.78;5119213;27;19935;-37
2022/08/31 01:45:59;;;;;;;;;;;;;;;24.01;50.43;101600.88;5140650;27;20358;-39
2022/08/31 01:48:25;;;;;;;;;;;;;;;24.01;50.75;101604.50;5139316;27;20066;-38
2022/08/31 01:50:50;;;;;;;;;;;;;;;24.02;50.47;101596.97;5122709;27;19923;-38
2022/08/31 01:53:16;;;;;;;;;;;;;;;24.01;50.54;101598.09;5141631;27;19924;-38
2022/08/31 01:55:42;;;;;;;;;;;;;;;24.00;50.55;101604.78;5143992;27;19976;-37
2022/08/31 01:58:08;;;;;;;;;;;;;;;24.00;50.69;101608.38;5144869;27;20329;-37
2022/08/31 02:00:33;;;;;;;;;;;;;;;24.01;50.54;101606.44;5139603;27;19930;-38
2022/08/31 02:03:00;;;;;;;;;;;;;;;24.00;50.54;101610.34;5140385;27;19930;-38
2022/08/31 02:05:27;;;;;;;;;;;;;;;24.01;50.56;101606.44;5140907;27;20006;-37
2022/08/31 02:07:53;;;;;;;;;;;;;;;24.01;50.53;101609.22;5138136;27;19980;-38
2022/08/31 02:10:18;;;;;;;;;;;;;;;24.00;50.70;101607.56;5140859;27;19959;-38
2022/08/31 02:12:44;;;;;;;;;;;;;;;24.00;50.50;101604.78;5144129;27;19930;-38
2022/08/31 02:15:09;;;;;;;;;;;;;;;24.00;50.46;101611.16;5139189;27;20608;-38
2022/08/31 02:17:35;;;;;;;;;;;;;;;24.00;50.57;101618.69;5140574;27;19937;-37
2022/08/31 02:20:03;;;;;;;;;;;;;;;24.00;50.36;101613.94;5138943;27;19923;-37
2022/08/31 02:22:28;;;;;;;;;;;;;;;24.00;50.35;101616.72;5123184;27;19962;-38
2022/08/31 02:24:54;;;;;;;;;;;;;;;24.00;50.50;101618.69;5139458;27;19930;-37
2022/08/31 02:27:20;;;;;;;;;;;;;;;23.99;50.63;101620.63;5141472;27;19923;-38
2022/08/31 02:29:45;;;;;;;;;;;;;;;23.99;50.54;101619.81;5141740;27;20273;-38
2022/08/31 02:32:15;;;;;;;;;;;;;;;23.99;50.56;101617.84;5140803;27;19923;-37
2022/08/31 02:34:46;;;;;;;;;;;;;;;24.00;50.39;101618.69;5137101;27;19963;-38
2022/08/31 02:37:12;;;;;;;;;;;;;;;24.01;50.51;101628.72;5139876;27;19990;-38
2022/08/31 02:39:37;;;;;;;;;;;;;;;23.99;50.41;101623.44;5138118;27;19941;-38
2022/08/31 02:42:03;;;;;;;;;;;;;;;24.00;50.56;101621.47;5134911;27;19923;-37
2022/08/31 02:44:29;;;;;;;;;;;;;;;23.98;50.75;101626.50;5135600;27;20051;-38
2022/08/31 02:46:55;;;;;;;;;;;;;;;23.98;50.47;101621.78;5138589;27;19923;-38
2022/08/31 02:49:20;;;;;;;;;;;;;;;23.98;50.43;101627.34;5136722;27;19928;-38
2022/08/31 02:51:46;;;;;;;;;;;;;;;23.98;50.38;101623.72;5135767;27;20285;-39
2022/08/31 02:54:12;;;;;;;;;;;;;;;23.99;50.41;101622.59;5120874;27;19923;-38
2022/08/31 02:56:37;;;;;;;;;;;;;;;23.99;50.72;101625.38;5136733;27;20334;-38
2022/08/31 02:59:03;;;;;;;;;;;;;;;23.98;50.46;101624.56;5143550;27;20227;-37
2022/08/31 03:01:28;;;;;;;;;;;;;;;23.99;50.51;101622.59;5139461;27;19993;-38
2022/08/31 03:03:54;;;;;;;;;;;;;;;23.99;50.37;101630.94;5123292;27;19923;-40
2022/08/31 03:06:21;;;;;;;;;;;;;;;23.98;50.49;101623.72;5140573;27;19931;-37
2022/08/31 03:08:47;;;;;;;;;;;;;;;23.98;50.42;101616.22;5140534;27;19985;-38
2022/08/31 03:11:13;;;;;;;;;;;;;;;23.98;50.60;101620.94;5123224;27;19924;-38
2022/08/31 03:13:39;;;;;;;;;;;;;;;23.97;50.60;101620.13;5120732;27;19928;-37
2022/08/31 03:16:05;;;;;;;;;;;;;;;23.97;50.49;101614.56;5136904;27;19931;-37
2022/08/31 03:18:30;;;;;;;;;;;;;;;23.98;50.62;101619.00;5137495;27;20006;-38
2022/08/31 03:20:56;;;;;;;;;;;;;;;23.98;50.37;101609.81;5143450;27;19923;-38
2022/08/31 03:23:22;;;;;;;;;;;;;;;23.99;50.38;101611.47;5145287;27;20384;-37
2022/08/31 03:25:47;;;;;;;;;;;;;;;23.98;50.48;101607.88;5135805;27;19934;-38
2022/08/31 03:28:13;;;;;;;;;;;;;;;23.97;50.45;101606.22;5136823;27;20323;-37
2022/08/31 03:30:38;;;;;;;;;;;;;;;23.97;50.63;101605.38;5137791;27;19942;-38
2022/08/31 03:33:04;;;;;;;;;;;;;;;23.99;50.38;101611.47;5120127;27;19962;-38
2022/08/31 03:35:30;;;;;;;;;;;;;;;23.98;50.50;101612.59;5138942;27;19923;-37
2022/08/31 03:37:55;;;;;;;;;;;;;;;23.96;50.40;101603.72;5138674;27;20370;-38
2022/08/31 03:40:21;;;;;;;;;;;;;;;23.97;50.34;101599.81;5142728;27;19930;-38
2022/08/31 03:42:46;;;;;;;;;;;;;;;23.97;50.49;101597.88;5137488;27;19931;-38
2022/08/31 03:45:12;;;;;;;;;;;;;;;23.97;50.62;101603.44;5138147;27;20376;-37
2022/08/31 03:47:38;;;;;;;;;;;;;;;23.98;50.41;101612.59;5135852;27;19931;-37
2022/08/31 03:50:10;;;;;;;;;;;;;;;23.97;50.45;101617.34;5140080;27;19966;-38
2022/08/31 03:52:37;;;;;;;;;;;;;;;23.97;50.38;101628.47;5139115;27;19953;-37
2022/08/31 03:55:03;;;;;;;;;;;;;;;23.97;50.70;101619.31;5139996;27;19965;-37
2022/08/31 03:57:28;;;;;;;;;;;;;;;23.96;50.56;101624.03;5122343;27;20377;-37
2022/08/31 03:59:56;;;;;;;;;;;;;;;23.97;50.58;101622.09;5138389;27;19923;-37
2022/08/31 04:02:22;;;;;;;;;;;;;;;23.97;50.38;101619.31;5121902;27;19994;-37
2022/08/31 04:04:49;;;;;;;;;;;;;;;23.97;50.34;101622.09;5120120;27;19927;-38
2022/08/31 04:07:14;;;;;;;;;;;;;;;23.96;50.46;101621.25;5137661;27;20401;-37
2022/08/31 04:09:40;;;;;;;;;;;;;;;23.96;50.48;101612.91;5138446;27;19923;-37
2022/08/31 04:12:05;;;;;;;;;;;;;;;23.96;50.65;101612.91;5141280;27;20327;-37
2022/08/31 04:14:31;;;;;;;;;;;;;;;23.95;50.56;101614.00;5141369;27;19923;-37
2022/08/31 04:16:56;;;;;;;;;;;;;;;23.96;50.41;101610.13;5139943;27;19931;-37
2022/08/31 04:19:23;;;;;;;;;;;;;;;23.96;50.61;101612.06;5140618;27;19927;-38
2022/08/31 04:21:49;;;;;;;;;;;;;;;23.97;50.55;101610.94;5139580;27;19966;-37
2022/08/31 04:24:14;;;;;;;;;;;;;;;23.97;50.56;101616.53;5134501;27;19923;-37
2022/08/31 04:26:40;;;;;;;;;;;;;;;23.96;50.41;101603.72;5137332;27;20376;-38
2022/08/31 04:29:06;;;;;;;;;;;;;;;23.97;50.65;101616.53;5142615;27;19932;-37
2022/08/31 04:31:38;;;;;;;;;;;;;;;23.96;50.44;101615.69;5121097;27;20345;-37
2022/08/31 04:34:04;;;;;;;;;;;;;;;23.97;50.36;101613.75;5137624;27;19923;-38
2022/08/31 04:36:29;;;;;;;;;;;;;;;23.94;50.54;101620.72;5138589;27;19946;-38
2022/08/31 04:38:56;;;;;;;;;;;;;;;23.96;50.35;101617.63;5137500;27;20033;-38
2022/08/31 04:41:22;;;;;;;;;;;;;;;23.95;50.54;101619.56;5140083;27;19963;-38
2022/08/31 04:43:48;;;;;;;;;;;;;;;23.95;50.40;101621.53;5135078;27;20385;-38
2022/08/31 04:46:14;;;;;;;;;;;;;;;23.96;50.44;101623.19;5120688;27;20035;-38
2022/08/31 04:48:40;;;;;;;;;;;;;;;23.95;50.38;101621.53;5127211;27;19923;-38
2022/08/31 04:51:06;;;;;;;;;;;;;;;23.95;50.30;101621.53;5142398;27;19999;-37
2022/08/31 04:53:32;;;;;;;;;;;;;;;23.95;50.75;101621.53;5134384;27;19932;-37
2022/08/31 04:55:57;;;;;;;;;;;;;;;23.95;50.66;101627.91;5132123;27;19931;-38
2022/08/31 04:58:23;;;;;;;;;;;;;;;23.95;50.45;101627.09;5117023;27;19976;-37
2022/08/31 05:00:50;;;;;;;;;;;;;;;23.96;50.51;101631.53;5135546;27;19931;-37
2022/08/31 05:03:16;;;;;;;;;;;;;;;23.94;50.41;101626.28;5141392;27;19966;-38
2022/08/31 05:05:41;;;;;;;;;;;;;;;23.95;50.41;101633.50;5123254;27;20022;-38
2022/08/31 05:08:07;;;;;;;;;;;;;;;23.95;50.42;101639.06;5137562;27;19923;-37
2022/08/31 05:10:32;;;;;;;;;;;;;;;23.94;50.50;101640.19;5136415;27;19923;-38
2022/08/31 05:12:58;;;;;;;;;;;;;;;23.95;50.45;101638.22;5138382;27;20301;-37
2022/08/31 05:15:23;;;;;;;;;;;;;;;23.94;50.54;101628.22;5131423;27;19924;-37
2022/08/31 05:17:49;;;;;;;;;;;;;;;23.95;50.59;101633.50;5126120;27;19931;-37
2022/08/31 05:20:15;;;;;;;;;;;;;;;23.94;50.52;101634.63;5129238;27;19923;-38
2022/08/31 05:22:40;;;;;;;;;;;;;;;23.95;49.86;101638.22;5132264;27;19931;-38
2022/08/31 05:25:06;;;;;;;;;;;;;;;23.93;49.56;101629.38;5129915;27;19931;-38
2022/08/31 05:27:32;;;;;;;;;;;;;;;23.94;49.30;101633.78;5135108;27;20271;-38
2022/08/31 05:29:58;;;;;;;;;;;;;;;23.93;49.04;101632.97;5109522;27;19927;-38
2022/08/31 05:32:23;;;;;;;;;;;;;;;23.94;49.28;101637.41;5128747;27;19931;-37
2022/08/31 05:34:50;;;;;;;;;;;;;;;23.94;48.85;101631.00;5129347;27;19923;-38
2022/08/31 05:37:16;;;;;;;;;;;;;;;23.94;48.76;101639.34;5128017;27;20174;-39
2022/08/31 05:39:42;;;;;;;;;;;;;;;23.94;49.39;101642.97;5111230;27;19923;-37
2022/08/31 05:42:07;;;;;;;;;;;;;;;23.94;49.69;101634.63;5134525;27;19923;-38
2022/08/31 05:44:33;;;;;;;;;;;;;;;23.95;49.77;101635.44;5132347;27;20357;-38
2022/08/31 05:46:59;;;;;;;;;;;;;;;23.95;49.80;101641.00;5111062;27;20026;-38
2022/08/31 05:49:29;;;;;;;;;;;;;;;23.95;50.13;101627.09;5124212;27;19931;-39
2022/08/31 05:51:55;;;;;;;;;;;;;;;23.95;50.16;101632.66;5131855;27;19931;-40
2022/08/31 05:54:21;;;;;;;;;;;;;;;23.99;50.38;101639.28;5133056;27;19927;-38
2022/08/31 05:56:47;;;;;;;;;;;;;;;23.97;50.53;101636.81;5129322;27;19923;-38
2022/08/31 05:59:13;;;;;;;;;;;;;;;23.97;50.27;101634.03;5129256;27;19931;-37
2022/08/31 06:01:39;;;;;;;;;;;;;;;23.97;50.14;101633.22;5133283;27;19981;-40
2022/08/31 06:04:05;;;;;;;;;;;;;;;23.96;50.12;101629.59;5124578;27;20038;-40
2022/08/31 06:06:31;;;;;;;;;;;;;;;23.96;50.23;101637.09;5120458;27;19923;-37
2022/08/31 06:08:56;;;;;;;;;;;;;;;23.95;50.16;101636.28;5122054;27;19972;-37
2022/08/31 06:11:23;;;;;;;;;;;;;;;23.93;50.30;101635.75;5124155;27;19942;-37
2022/08/31 06:13:49;;;;;;;;;;;;;;;23.94;50.04;101648.53;5126879;27;20481;-37
2022/08/31 06:16:16;;;;;;;;;;;;;;;23.95;49.93;101641.84;5123308;27;20026;-38
2022/08/31 06:18:48;;;;;;;;;;;;;;;23.93;49.79;101643.28;5110515;28;19923;-37
2022/08/31 06:21:14;;;;;;;;;;;;;;;23.94;49.64;101642.13;5129739;27;19971;-38
2022/08/31 06:23:41;;;;;;;;;;;;;;;23.92;49.74;101648.00;5131681;27;20007;-37
2022/08/31 06:26:11;;;;;;;;;;;;;;;23.94;49.79;101647.69;5132750;27;19966;-37
2022/08/31 06:28:37;;;;;;;;;;;;;;;23.93;49.85;101640.50;5126756;27;20068;-38
2022/08/31 06:31:10;;;;;;;;;;;;;;;23.92;49.55;101648.00;5127844;27;19935;-37
2022/08/31 06:33:37;;;;;;;;;;;;;;;23.93;49.46;101652.44;5122561;27;19954;-37
2022/08/31 06:36:03;;;;;;;;;;;;;;;23.92;49.40;101639.66;5104308;27;20393;-38
2022/08/31 06:38:28;;;;;;;;;;;;;;;23.93;49.41;101646.06;5108591;28;19973;-37
2022/08/31 06:40:58;;;;;;;;;;;;;;;23.94;49.33;101647.69;5125789;27;19932;-37
2022/08/31 06:43:23;;;;;;;;;;;;;;;23.87;48.63;101650.81;5124925;27;19931;-37
2022/08/31 06:45:49;;;;;;;;;;;;;;;23.92;49.58;101647.16;5121779;27;20201;-37
2022/08/31 06:48:15;;;;;;;;;;;;;;;23.94;49.57;101653.28;5123718;27;19979;-39
2022/08/31 06:50:40;;;;;;;;;;;;;;;23.93;49.32;101646.06;5122938;27;19923;-38
2022/08/31 06:53:06;;;;;;;;;;;;;;;23.95;49.22;101654.91;5124736;27;19976;-39
2022/08/31 06:55:32;;;;;;;;;;;;;;;23.94;49.38;101659.66;5122590;27;20385;-39
2022/08/31 06:57:58;;;;;;;;;;;;;;;23.94;49.60;101659.66;5102835;27;20026;-40
2022/08/31 07:00:23;;;;;;;;;;;;;;;23.94;49.29;101661.63;5118995;27;19932;-38
2022/08/31 07:02:49;;;;;;;;;;;;;;;23.94;49.64;101667.19;5116273;27;19931;-39
2022/08/31 07:05:23;;;;;;;;;;;;;;;23.96;49.72;101670.47;5115044;27;19976;-39
2022/08/31 07:07:49;;;;;;;;;;;;;;;23.97;49.56;101680.50;5116821;27;20389;-41
2022/08/31 07:10:17;;;;;;;;;;;;;;;23.97;49.69;101683.28;5118791;27;19927;-39
2022/08/31 07:12:43;;;;;;;;;;;;;;;23.96;49.36;101687.16;5119574;27;20369;-38
2022/08/31 07:15:08;;;;;;;;;;;;;;;23.95;49.03;101688.31;5123706;27;19984;-38
2022/08/31 07:17:34;;;;;;;;;;;;;;;23.96;49.19;101684.38;5126229;27;19931;-38
2022/08/31 07:19:59;;;;;;;;;;;;;;;23.96;49.29;101689.94;5126009;27;19939;-38
2022/08/31 07:22:25;;;;;;;;;;;;;;;23.46;48.81;101684.59;5124131;27;20135;-46
2022/08/31 07:24:51;;;;;;;;;;;;;;;23.73;48.58;101686.84;5124902;27;19923;-38
2022/08/31 07:27:17;;;;;;;;;;;;;;;23.85;48.52;101685.66;5125640;27;19931;-38
2022/08/31 07:29:42;;;;;;;;;;;;;;;23.90;48.61;101691.97;5122929;27;20532;-38
2022/08/31 07:32:09;;;;;;;;;;;;;;;23.92;48.66;101689.75;5103861;28;19931;-38
2022/08/31 07:34:35;;;;;;;;;;;;;;;23.92;48.63;101686.97;5096904;27;20295;-39
2022/08/31 07:42:36;;;;;;;;;;;;;;;23.96;48.44;101687.16;5095135;27;19927;-40
2022/08/31 07:45:04;;;;;;;;;;;;;;;23.94;48.43;101704.16;5120274;27;20024;-39
2022/08/31 07:47:31;;;;;;;;;;;;;;;23.94;48.52;101695.81;5124384;27;19971;-40
2022/08/31 07:49:59;;;;;;;;;;;;;;;23.95;48.54;101694.69;5126064;27;19932;-39
2022/08/31 07:52:26;;;;;;;;;;;;;;;23.95;48.41;101699.44;5107711;27;20370;-39
2022/08/31 07:54:53;;;;;;;;;;;;;;;23.95;48.59;101699.44;5102332;27;20014;-39
2022/08/31 07:57:20;;;;;;;;;;;;;;;23.96;48.47;101703.88;5123462;27;19931;-41
2022/08/31 07:59:46;;;;;;;;;;;;;;;23.98;48.69;101704.41;5123347;27;19973;-39
2022/08/31 08:02:12;;;;;;;;;;;;;;;23.98;48.41;101709.97;5099505;27;19924;-39
2022/08/31 08:04:43;;;;;;;;;;;;;;;23.99;48.67;101712.47;5120700;27;19927;-42
2022/08/31 08:07:10;;;;;;;;;;;;;;;23.98;48.62;101702.47;5121339;27;19931;-39
2022/08/31 08:09:35;;;;;;;;;;;;;;;24.00;48.96;101702.97;5101602;27;20389;-41
2022/08/31 08:12:08;;;;;;;;;;;;;;;24.00;48.96;101707.72;5121338;27;19927;-40
2022/08/31 08:14:37;;;;;;;;;;;;;;;24.01;49.16;101703.84;5122528;27;20022;-38
2022/08/31 08:17:04;;;;;;;;;;;;;;;24.02;49.04;101711.06;5127650;27;20042;-39
2022/08/31 08:19:29;;;;;;;;;;;;;;;24.01;48.96;101712.19;5127667;27;20452;-39
2022/08/31 08:21:56;;;;;;;;;;;;;;;24.02;49.03;101708.28;5127554;27;19931;-39
2022/08/31 08:24:21;;;;;;;;;;;;;;;24.01;49.11;101710.22;5122229;27;20046;-41
2022/08/31 08:26:48;;;;;;;;;;;;;;;24.02;49.13;101711.88;5128472;27;19941;-39
2022/08/31 08:29:19;;;;;;;;;;;;;;;24.03;48.98;101712.69;5111302;27;20368;-39
2022/08/31 08:31:50;;;;;;;;;;;;;;;23.96;48.47;101713.06;5128630;27;19931;-38
2022/08/31 08:34:17;;;;;;;;;;;;;;;23.97;48.50;101708.34;5105272;27;19927;-39
2022/08/31 08:36:43;;;;;;;;;;;;;;;23.96;48.39;101713.06;5121155;27;20005;-42
2022/08/31 08:39:08;;;;;;;;;;;;;;;24.02;48.37;101716.63;5114690;27;20351;-40
2022/08/31 08:41:35;;;;;;;;;;;;;;;24.03;48.59;101715.47;5119179;27;21649;-39
2022/08/31 08:44:02;;;;;;;;;;;;;;;24.00;48.22;101714.09;5115071;27;19972;-39
2022/08/31 08:46:30;;;;;;;;;;;;;;;24.03;48.37;101713.53;5103794;28;20010;-41
2022/08/31 08:49:19;;;;;;;;;;;;;;;24.05;48.42;101716.03;5111115;27;19927;-40
2022/08/31 08:51:45;;;;;;;;;;;;;;;24.04;48.45;101717.97;5104724;28;19927;-40
2022/08/31 08:54:12;;;;;;;;;;;;;;;24.04;48.52;101711.56;5121952;27;20019;-39
2022/08/31 08:56:40;;;;;;;;;;;;;;;24.04;48.58;101717.13;5107753;28;20065;-42
2022/08/31 08:59:07;;;;;;;;;;;;;;;24.04;48.66;101715.19;5124061;27;20423;-39
2022/08/31 09:01:38;;;;;;;;;;;;;;;24.05;48.51;101710.47;5117039;27;19924;-40
2022/08/31 09:04:06;;;;;;;;;;;;;;;24.05;48.65;101716.03;5122551;27;19934;-39
2022/08/31 09:06:45;;;;;;;;;;;;;;;23.92;48.55;101713.91;5090770;27;20293;-41
2022/08/31 09:09:20;;;;;;;;;;;;;;;23.67;48.31;101715.03;5113469;27;20075;-37
2022/08/31 09:11:57;;;;;;;;;;;;;;;23.92;48.61;101713.91;5113502;27;20412;-40
2022/08/31 09:14:47;;;;;;;;;;;;;;;24.01;48.48;101712.19;5117377;27;20312;-39
2022/08/31 09:17:17;;;;;;;;;;;;;;;24.04;48.45;101714.34;5110970;27;21573;-39
2022/08/31 09:19:59;;;;;;;;;;;;;;;24.06;48.54;101702.94;5128954;27;20015;-40
2022/08/31 09:22:25;;;;;;;;;;;;;;;24.03;48.57;101707.13;5112234;27;20024;-40
2022/08/31 09:24:50;;;;;;;;;;;;;;;24.07;48.64;101710.16;5126887;27;20056;-41
2022/08/31 09:27:17;;;;;;;;;;;;;;;24.07;48.57;101711.00;5120265;27;19923;-41
2022/08/31 09:29:51;;;;;;;;;;;;;;;24.08;48.81;101707.06;5122893;27;19923;-40
2022/08/31 09:32:22;;;;;;;;;;;;;;;24.10;48.78;101704.00;5119413;27;19985;-39
2022/08/31 09:34:52;;;;;;;;;;;;;;;24.09;48.82;101705.13;5114582;27;19932;-39
2022/08/31 09:37:25;;;;;;;;;;;;;;;24.07;49.02;101708.22;5120022;27;20015;-41
2022/08/31 09:39:51;;;;;;;;;;;;;;;24.11;48.83;101700.94;5122960;27;20333;-40
2022/08/31 09:42:27;;;;;;;;;;;;;;;24.13;49.06;101701.44;5101367;27;20417;-39
2022/08/31 09:44:54;;;;;;;;;;;;;;;24.12;48.76;101701.75;5103559;27;20367;-39
2022/08/31 09:47:46;;;;;;;;;;;;;;;24.12;48.80;101696.19;5100840;27;20014;-39
2022/08/31 09:50:30;;;;;;;;;;;;;;;24.12;49.07;101699.78;5113438;27;20006;-40
2022/08/31 09:56:14;;;;;;;;;;;;;;;24.14;48.76;101705.09;5101850;27;19987;-41
2022/08/31 09:58:44;;;;;;;;;;;;;;;24.15;48.80;101696.44;5106247;27;20010;-40
2022/08/31 10:01:12;;;;;;;;;;;;;;;24.14;48.90;101700.34;5109121;27;20373;-39
2022/08/31 10:03:43;;;;;;;;;;;;;;;24.15;48.61;101696.44;5126576;27;20315;-41
2022/08/31 10:06:33;;;;;;;;;;;;;;;24.03;47.81;101696.84;5122080;27;19935;-40
2022/08/31 10:08:59;;;;;;;;;;;;;;;24.10;48.07;101699.28;5114262;27;19974;-39
2022/08/31 10:11:29;;;;;;;;;;;;;;;24.13;48.25;101695.06;5126602;27;20487;-40
2022/08/31 10:13:59;;;;;;;;;;;;;;;24.13;48.23;101690.31;5126322;27;20124;-38
2022/08/31 10:16:29;;;;;;;;;;;;;;;24.14;48.35;101702.31;5112448;27;20283;-39
2022/08/31 10:18:57;;;;;;;;;;;;;;;23.76;47.86;101699.34;5129881;27;20285;-40
2022/08/31 10:21:27;;;;;;;;;;;;;;;23.98;47.75;101696.91;5111678;27;19990;-40
2022/08/31 10:24:19;;;;;;;;;;;;;;;24.08;47.52;101686.78;5125190;27;19967;-41
2022/08/31 10:26:46;;;;;;;;;;;;;;;24.12;47.53;101685.88;5127573;27;20073;-42
2022/08/31 10:29:14;;;;;;;;;;;;;;;24.06;47.30;101689.88;5113679;27;20000;-40
2022/08/31 10:31:49;;;;;;;;;;;;;;;24.11;47.40;101686.19;5132595;27;19923;-40
2022/08/31 10:37:08;;;;;;;;;;;;;;;24.14;47.55;101685.59;5098989;27;19963;-40
2022/08/31 10:39:52;;;;;;;;;;;;;;;24.16;48.05;101686.13;5107602;27;20396;-40
2022/08/31 10:42:18;;;;;;;;;;;;;;;24.10;47.41;101693.72;5119923;27;19981;-40
2022/08/31 10:44:50;;;;;;;;;;;;;;;24.17;47.60;101687.78;5123258;27;19981;-41
2022/08/31 10:47:17;;;;;;;;;;;;;;;24.18;47.71;101686.63;5121241;27;19924;-40
2022/08/31 10:49:58;;;;;;;;;;;;;;;24.18;47.90;101684.72;5111542;27;19942;-40
2022/08/31 10:52:28;;;;;;;;;;;;;;;24.18;47.95;101679.16;5131919;27;19931;-39
2022/08/31 10:55:13;;;;;;;;;;;;;;;24.19;48.00;101679.97;5123094;27;20022;-41
2022/08/31 10:57:44;;;;;;;;;;;;;;;24.19;47.71;101682.75;5113004;27;19937;-40
2022/08/31 11:00:40;;;;;;;;;;;;;;;24.20;47.69;101684.41;5124814;27;20011;-40
2022/08/31 11:03:26;;;;;;;;;;;;;;;24.18;47.67;101687.50;5113877;27;20018;-40
2022/08/31 11:05:56;;;;;;;;;;;;;;;24.18;47.68;101686.63;5107902;27;19929;-42
2022/08/31 11:08:25;;;;;;;;;;;;;;;24.19;47.81;101691.94;5128905;27;20057;-39
2022/08/31 11:10:52;;;;;;;;;;;;;;;24.21;47.96;101675.75;5112025;27;19981;-40
2022/08/31 11:13:30;;;;;;;;;;;;;;;24.27;48.28;101684.88;5125726;27;20030;-43
2022/08/31 11:15:58;;;;;;;;;;;;;;;24.25;47.68;101687.94;5121406;27;20022;-41
2022/08/31 11:18:44;;;;;;;;;;;;;;;24.25;47.64;101687.94;5128508;27;20018;-41
2022/08/31 11:21:34;;;;;;;;;;;;;;;24.25;47.94;101692.69;5113824;27;20022;-43
2022/08/31 11:24:11;;;;;;;;;;;;;;;24.24;48.01;101682.69;5109383;27;19976;-41
2022/08/31 11:26:42;;;;;;;;;;;;;;;24.25;48.04;101678.78;5130474;27;20649;-42
2022/08/31 11:29:11;;;;;;;;;;;;;;;24.25;48.01;101682.38;5101801;27;20060;-43
2022/08/31 11:31:37;;;;;;;;;;;;;;;24.24;47.95;101686.28;5128181;27;20334;-42
2022/08/31 11:34:24;;;;;;;;;;;;;;;24.25;48.09;101674.03;5102642;27;20207;-41
2022/08/31 11:36:52;;;;;;;;;;;;;;;24.26;48.25;101675.69;5098456;27;20599;-40
2022/08/31 11:39:34;;;;;;;;;;;;;;;24.26;48.26;101672.06;5127478;27;19954;-40
2022/08/31 11:42:01;;;;;;;;;;;;;;;24.26;48.39;101675.69;5104266;27;20026;-40
2022/08/31 11:47:05;;;;;;;;;;;;;;;24.24;48.49;101672.38;5159209;27;20021;-38
2022/08/31 11:49:34;;;;;;;;;;;;;;;24.25;48.35;101665.69;5146835;27;20045;-38
2022/08/31 11:52:09;;;;;;;;;;;;;;;24.25;48.56;101671.25;5147081;27;20022;-40
2022/08/31 11:54:40;;;;;;;;;;;;;;;24.26;48.79;101663.72;5166691;27;19958;-38
2022/08/31 11:57:14;;;;;;;;;;;;;;;24.25;48.88;101660.09;5160703;27;20341;-38
2022/08/31 11:59:44;;;;;;;;;;;;;;;23.94;49.84;101658.84;5153100;27;20017;-36
2022/08/31 12:02:33;;;;;;;;;;;;;;;24.17;49.40;101665.50;5163940;27;20065;-37
2022/08/31 12:04:59;;;;;;;;;;;;;;;24.24;49.34;101657.63;5154784;27;19942;-37
2022/08/31 12:07:29;;;;;;;;;;;;;;;24.26;49.23;101658.16;5161892;27;20066;-36
2022/08/31 12:10:00;;;;;;;;;;;;;;;24.26;49.17;101655.38;5148523;27;20392;-37
2022/08/31 12:12:29;;;;;;;;;;;;;;;24.25;49.06;101651.75;5156636;27;20347;-36
2022/08/31 12:15:03;;;;;;;;;;;;;;;24.25;49.17;101654.53;5167850;27;20021;-39
2022/08/31 12:20:11;;;;;;;;;;;;;;;24.29;49.14;101646.44;5159283;27;20013;-37
2022/08/31 12:25:34;;;;;;;;;;;;;;;24.31;49.10;101646.97;5155894;27;20022;-36
2022/08/31 12:28:03;;;;;;;;;;;;;;;24.32;49.08;101647.81;5143268;27;20376;-36
2022/08/31 12:30:29;;;;;;;;;;;;;;;24.32;49.19;101645.03;5140315;27;20026;-37
2022/08/31 12:33:14;;;;;;;;;;;;;;;24.26;49.24;101635.88;5136046;27;19923;-41
2022/08/31 12:35:40;;;;;;;;;;;;;;;24.33;49.20;101635.53;5117225;27;20016;-36
2022/08/31 12:38:08;;;;;;;;;;;;;;;24.33;49.22;101638.31;5135259;27;20019;-36
2022/08/31 12:40:34;;;;;;;;;;;;;;;24.33;49.27;101632.75;5111320;27;20341;-37
2022/08/31 12:43:02;;;;;;;;;;;;;;;24.35;49.26;101638.84;5120440;27;20173;-36
2022/08/31 12:45:47;;;;;;;;;;;;;;;24.36;49.28;101646.91;5138468;27;20027;-36
2022/08/31 12:48:18;;;;;;;;;;;;;;;24.35;49.32;101636.06;5122662;27;20301;-36
2022/08/31 12:50:45;;;;;;;;;;;;;;;24.34;49.41;101632.44;5141999;27;19977;-36
2022/08/31 12:53:31;;;;;;;;;;;;;;;24.32;49.46;101629.16;5142978;27;20019;-37
2022/08/31 12:55:58;;;;;;;;;;;;;;;24.32;49.08;101631.09;5126062;27;20042;-36
2022/08/31 12:58:29;;;;;;;;;;;;;;;24.31;49.18;101633.06;5144610;27;19991;-36
2022/08/31 13:01:03;;;;;;;;;;;;;;;24.29;49.24;101625.00;5140192;27;19970;-36
2022/08/31 13:03:36;;;;;;;;;;;;;;;24.32;49.27;101626.34;5144258;27;19931;-36
2022/08/31 13:06:06;;;;;;;;;;;;;;;24.32;49.17;101620.78;5124395;27;19931;-36